LPE2024 SPTU-SPJC
Flight info
| Callsign | LPE2024 |
|---|---|
| Flight time | 1h 15m |
| Altitude | 38000 |
| Route | PUMSA UT332 UDENI UT321 PEROV |
| Aircraft | A319/M-SDE3FGHIRWY/LB1 |
Departure
| Time | 2026-05-06 21:00 |
|---|---|
| Airport | Padre Aldamiz International Airport (SPTU) |
Arrival
| Time | 2026-05-06 22:15 |
|---|---|
| Airport | Jorge Chávez International Airport (SPJC) |
| Time | Latitude | Longitude | Altitude | Speed | Heading |
|---|---|---|---|---|---|
| 2026-05-06 21:00 | -12.73017 | -69.43825 | 10560 ft | 300 kts | 251° |
| 2026-05-06 21:00 | -12.73758 | -69.45896 | 10930 ft | 316 kts | 251° |
| 2026-05-06 21:00 | -12.74518 | -69.48024 | 11500 ft | 323 kts | 251° |
| 2026-05-06 21:00 | -12.75297 | -69.50201 | 12139 ft | 327 kts | 251° |
| 2026-05-06 21:01 | -12.76081 | -69.52390 | 12749 ft | 331 kts | 251° |
| 2026-05-06 21:01 | -12.76878 | -69.54618 | 13339 ft | 335 kts | 251° |
| 2026-05-06 21:01 | -12.77677 | -69.56849 | 13916 ft | 340 kts | 251° |
| 2026-05-06 21:01 | -12.78496 | -69.59139 | 14499 ft | 343 kts | 251° |
| 2026-05-06 21:02 | -12.79317 | -69.61438 | 15069 ft | 347 kts | 250° |
| 2026-05-06 21:02 | -12.80142 | -69.63751 | 15643 ft | 350 kts | 250° |
| 2026-05-06 21:02 | -12.80982 | -69.66107 | 16220 ft | 353 kts | 250° |
| 2026-05-06 21:02 | -12.81824 | -69.68467 | 16778 ft | 356 kts | 250° |
| 2026-05-06 21:03 | -12.82678 | -69.70857 | 17319 ft | 360 kts | 250° |
| 2026-05-06 21:03 | -12.83485 | -69.73309 | 17841 ft | 363 kts | 255° |
| 2026-05-06 21:03 | -12.83942 | -69.75853 | 18346 ft | 366 kts | 265° |
| 2026-05-06 21:03 | -12.84007 | -69.78455 | 18843 ft | 369 kts | 272° |
| 2026-05-06 21:04 | -12.83893 | -69.81079 | 19343 ft | 372 kts | 274° |
| 2026-05-06 21:04 | -12.83748 | -69.83724 | 19830 ft | 375 kts | 274° |
| 2026-05-06 21:04 | -12.83602 | -69.86413 | 20306 ft | 379 kts | 274° |
| 2026-05-06 21:04 | -12.83462 | -69.89101 | 20762 ft | 382 kts | 275° |
| 2026-05-06 21:05 | -12.83325 | -69.91818 | 21198 ft | 385 kts | 275° |
| 2026-05-06 21:05 | -12.83188 | -69.94557 | 21635 ft | 388 kts | 275° |
| 2026-05-06 21:05 | -12.83052 | -69.97321 | 22091 ft | 390 kts | 275° |
| 2026-05-06 21:05 | -12.82916 | -70.00104 | 22548 ft | 392 kts | 275° |
| 2026-05-06 21:06 | -12.82777 | -70.02911 | 22985 ft | 395 kts | 275° |
| 2026-05-06 21:06 | -12.82639 | -70.05717 | 23430 ft | 397 kts | 275° |
| 2026-05-06 21:06 | -12.82499 | -70.08542 | 23886 ft | 399 kts | 275° |
| 2026-05-06 21:06 | -12.82361 | -70.11360 | 24331 ft | 401 kts | 275° |
| 2026-05-06 21:07 | -12.82222 | -70.14233 | 24766 ft | 403 kts | 275° |
| 2026-05-06 21:07 | -12.82081 | -70.17107 | 25179 ft | 405 kts | 275° |
| 2026-05-06 21:07 | -12.81941 | -70.19963 | 25584 ft | 407 kts | 275° |
| 2026-05-06 21:07 | -12.81799 | -70.22881 | 25980 ft | 409 kts | 275° |
| 2026-05-06 21:08 | -12.81655 | -70.25777 | 26386 ft | 411 kts | 275° |
| 2026-05-06 21:08 | -12.81510 | -70.28696 | 26797 ft | 413 kts | 275° |
| 2026-05-06 21:08 | -12.81364 | -70.31637 | 27205 ft | 415 kts | 275° |
| 2026-05-06 21:08 | -12.81218 | -70.34590 | 27609 ft | 416 kts | 275° |
| 2026-05-06 21:09 | -12.81073 | -70.37530 | 27994 ft | 418 kts | 275° |
| 2026-05-06 21:09 | -12.80925 | -70.40524 | 28379 ft | 420 kts | 275° |
| 2026-05-06 21:09 | -12.80776 | -70.43486 | 28753 ft | 422 kts | 275° |
| 2026-05-06 21:09 | -12.80626 | -70.46497 | 29132 ft | 423 kts | 275° |
| 2026-05-06 21:10 | -12.80477 | -70.49511 | 29601 ft | 422 kts | 275° |
| 2026-05-06 21:10 | -12.80328 | -70.52473 | 30048 ft | 421 kts | 275° |
| 2026-05-06 21:10 | -12.80176 | -70.55480 | 30440 ft | 422 kts | 275° |
| 2026-05-06 21:10 | -12.80025 | -70.58463 | 30801 ft | 423 kts | 275° |
| 2026-05-06 21:11 | -12.79871 | -70.61494 | 31151 ft | 425 kts | 275° |
| 2026-05-06 21:11 | -12.79719 | -70.64499 | 31496 ft | 427 kts | 276° |
| 2026-05-06 21:11 | -12.79564 | -70.67550 | 31844 ft | 428 kts | 276° |
| 2026-05-06 21:11 | -12.79410 | -70.70592 | 32245 ft | 428 kts | 276° |
| 2026-05-06 21:12 | -12.79258 | -70.73598 | 32760 ft | 425 kts | 276° |
| 2026-05-06 21:12 | -12.79105 | -70.76582 | 33344 ft | 422 kts | 276° |
| 2026-05-06 21:12 | -12.78947 | -70.79588 | 33898 ft | 420 kts | 276° |
| 2026-05-06 21:12 | -12.78791 | -70.82575 | 34432 ft | 418 kts | 276° |
| 2026-05-06 21:13 | -12.78638 | -70.85547 | 34886 ft | 418 kts | 276° |
| 2026-05-06 21:13 | -12.78484 | -70.88502 | 35246 ft | 419 kts | 275° |
| 2026-05-06 21:13 | -12.78330 | -70.91454 | 35571 ft | 420 kts | 275° |
| 2026-05-06 21:13 | -12.78173 | -70.94463 | 35879 ft | 422 kts | 275° |
| 2026-05-06 21:14 | -12.78019 | -70.97447 | 36097 ft | 424 kts | 275° |
| 2026-05-06 21:14 | -12.77706 | -71.03502 | 36125 ft | 431 kts | 275° |
| 2026-05-06 21:15 | -12.77378 | -71.09710 | 36129 ft | 445 kts | 275° |
| 2026-05-06 21:15 | -12.77045 | -71.16068 | 36137 ft | 448 kts | 275° |
| 2026-05-06 21:16 | -12.76711 | -71.22413 | 36119 ft | 448 kts | 275° |
| 2026-05-06 21:16 | -12.76372 | -71.28773 | 36100 ft | 447 kts | 275° |
| 2026-05-06 21:17 | -12.76033 | -71.35123 | 36134 ft | 448 kts | 275° |
| 2026-05-06 21:17 | -12.75693 | -71.41479 | 36190 ft | 447 kts | 275° |
| 2026-05-06 21:18 | -12.75351 | -71.47816 | 36216 ft | 447 kts | 275° |
| 2026-05-06 21:18 | -12.75007 | -71.54132 | 36258 ft | 448 kts | 275° |
| 2026-05-06 21:19 | -12.74662 | -71.60498 | 36330 ft | 449 kts | 275° |
| 2026-05-06 21:19 | -12.74314 | -71.66902 | 36417 ft | 449 kts | 275° |
| 2026-05-06 21:20 | -12.73967 | -71.73226 | 36523 ft | 448 kts | 275° |
| 2026-05-06 21:20 | -12.73618 | -71.79576 | 36586 ft | 448 kts | 275° |
| 2026-05-06 21:21 | -12.73263 | -71.85969 | 36601 ft | 448 kts | 275° |
| 2026-05-06 21:21 | -12.72912 | -71.92296 | 36574 ft | 448 kts | 275° |
| 2026-05-06 21:22 | -12.72555 | -71.98666 | 36570 ft | 448 kts | 275° |
| 2026-05-06 21:22 | -12.72199 | -72.05043 | 36542 ft | 449 kts | 275° |
| 2026-05-06 21:23 | -12.71843 | -72.11365 | 36577 ft | 448 kts | 275° |
| 2026-05-06 21:23 | -12.71483 | -72.17750 | 36531 ft | 449 kts | 275° |
| 2026-05-06 21:24 | -12.71124 | -72.24094 | 36539 ft | 448 kts | 275° |
| 2026-05-06 21:24 | -12.70762 | -72.30424 | 36536 ft | 448 kts | 275° |
| 2026-05-06 21:25 | -12.70398 | -72.36775 | 36502 ft | 448 kts | 275° |
| 2026-05-06 21:25 | -12.70033 | -72.43122 | 36482 ft | 448 kts | 275° |
| 2026-05-06 21:26 | -12.69667 | -72.49477 | 36425 ft | 448 kts | 275° |
| 2026-05-06 21:26 | -12.69295 | -72.55859 | 36397 ft | 449 kts | 275° |
| 2026-05-06 21:27 | -12.68925 | -72.62225 | 36445 ft | 449 kts | 275° |
| 2026-05-06 21:27 | -12.68553 | -72.68585 | 36387 ft | 448 kts | 275° |
| 2026-05-06 21:28 | -12.68181 | -72.74926 | 36411 ft | 448 kts | 275° |
| 2026-05-06 21:28 | -12.67804 | -72.81310 | 36386 ft | 448 kts | 275° |
| 2026-05-06 21:29 | -12.67431 | -72.87643 | 36403 ft | 448 kts | 275° |
| 2026-05-06 21:29 | -12.67051 | -72.94013 | 36393 ft | 449 kts | 275° |
| 2026-05-06 21:30 | -12.66672 | -73.00375 | 36419 ft | 449 kts | 275° |
| 2026-05-06 21:30 | -12.66290 | -73.06745 | 36418 ft | 448 kts | 275° |
| 2026-05-06 21:31 | -12.65908 | -73.13082 | 36418 ft | 448 kts | 275° |
| 2026-05-06 21:31 | -12.65524 | -73.19450 | 36396 ft | 448 kts | 275° |
| 2026-05-06 21:32 | -12.65140 | -73.25794 | 36401 ft | 448 kts | 275° |
| 2026-05-06 21:32 | -12.64561 | -73.35307 | 36401 ft | 448 kts | 275° |
| 2026-05-06 21:33 | -12.64170 | -73.41666 | 36458 ft | 448 kts | 275° |
| 2026-05-06 21:33 | -12.63781 | -73.47996 | 36486 ft | 447 kts | 275° |
| 2026-05-06 21:34 | -12.63390 | -73.54330 | 36502 ft | 447 kts | 275° |
| 2026-05-06 21:34 | -12.62996 | -73.60674 | 37099 ft | 444 kts | 275° |
| 2026-05-06 21:35 | -12.62802 | -73.63792 | 37913 ft | 433 kts | 275° |
| 2026-05-06 21:35 | -12.62613 | -73.66853 | 38328 ft | 430 kts | 275° |
| 2026-05-06 21:35 | -12.62237 | -73.72910 | 38340 ft | 429 kts | 275° |
| 2026-05-06 21:36 | -12.61851 | -73.79050 | 38287 ft | 440 kts | 275° |
| 2026-05-06 21:36 | -12.61454 | -73.85339 | 38374 ft | 448 kts | 275° |
| 2026-05-06 21:37 | -12.61052 | -73.91725 | 38422 ft | 450 kts | 275° |
| 2026-05-06 21:37 | -12.60648 | -73.98133 | 38506 ft | 450 kts | 275° |
| 2026-05-06 21:38 | -12.60244 | -74.04514 | 38546 ft | 450 kts | 275° |
| 2026-05-06 21:38 | -12.59837 | -74.10878 | 38614 ft | 451 kts | 275° |
| 2026-05-06 21:39 | -12.59430 | -74.17249 | 38673 ft | 450 kts | 275° |
| 2026-05-06 21:39 | -12.59016 | -74.23644 | 38725 ft | 449 kts | 275° |
| 2026-05-06 21:40 | -12.58606 | -74.30003 | 38761 ft | 450 kts | 275° |
| 2026-05-06 21:40 | -12.58194 | -74.36382 | 38814 ft | 449 kts | 275° |
| 2026-05-06 21:41 | -12.57780 | -74.42747 | 38801 ft | 450 kts | 275° |
| 2026-05-06 21:41 | -12.57363 | -74.49139 | 38848 ft | 449 kts | 275° |
| 2026-05-06 21:42 | -12.56944 | -74.55508 | 38881 ft | 448 kts | 275° |
| 2026-05-06 21:42 | -12.56527 | -74.61855 | 38903 ft | 448 kts | 275° |
| 2026-05-06 21:43 | -12.56109 | -74.68178 | 38919 ft | 448 kts | 275° |
| 2026-05-06 21:43 | -12.55688 | -74.74526 | 38937 ft | 448 kts | 275° |
| 2026-05-06 21:44 | -12.55265 | -74.80896 | 38983 ft | 448 kts | 275° |
| 2026-05-06 21:44 | -12.54842 | -74.87235 | 38961 ft | 448 kts | 275° |
| 2026-05-06 21:45 | -12.54419 | -74.93553 | 38996 ft | 448 kts | 275° |
| 2026-05-06 21:45 | -12.53990 | -74.99933 | 39021 ft | 448 kts | 275° |
| 2026-05-06 21:46 | -12.53565 | -75.06229 | 39033 ft | 447 kts | 275° |
| 2026-05-06 21:46 | -12.53135 | -75.12587 | 39027 ft | 447 kts | 275° |
| 2026-05-06 21:47 | -12.52704 | -75.18924 | 39024 ft | 447 kts | 275° |
| 2026-05-06 21:47 | -12.52216 | -75.25246 | 39008 ft | 446 kts | 278° |
| 2026-05-06 21:48 | -12.51201 | -75.31498 | 39011 ft | 446 kts | 283° |
| 2026-05-06 21:48 | -12.49817 | -75.37637 | 39021 ft | 445 kts | 284° |
| 2026-05-06 21:49 | -12.48416 | -75.43784 | 39019 ft | 445 kts | 284° |
| 2026-05-06 21:49 | -12.47023 | -75.49899 | 38761 ft | 433 kts | 284° |
| 2026-05-06 21:50 | -12.46347 | -75.52871 | 38159 ft | 429 kts | 284° |
| 2026-05-06 21:50 | -12.45674 | -75.55827 | 37442 ft | 429 kts | 284° |
| 2026-05-06 21:50 | -12.44999 | -75.58786 | 36702 ft | 428 kts | 284° |
| 2026-05-06 21:50 | -12.44333 | -75.61707 | 36003 ft | 427 kts | 284° |
| 2026-05-06 21:51 | -12.43657 | -75.64673 | 35352 ft | 425 kts | 284° |
| 2026-05-06 21:51 | -12.42985 | -75.67616 | 34665 ft | 424 kts | 284° |
| 2026-05-06 21:51 | -12.42320 | -75.70527 | 33996 ft | 423 kts | 285° |
| 2026-05-06 21:51 | -12.41652 | -75.73450 | 33320 ft | 423 kts | 285° |
| 2026-05-06 21:52 | -12.40983 | -75.76372 | 32826 ft | 419 kts | 285° |
| 2026-05-06 21:52 | -12.40323 | -75.79260 | 32424 ft | 418 kts | 285° |
| 2026-05-06 21:52 | -12.39666 | -75.82130 | 31992 ft | 415 kts | 285° |
| 2026-05-06 21:52 | -12.39015 | -75.84982 | 31536 ft | 412 kts | 285° |
| 2026-05-06 21:53 | -12.38364 | -75.87821 | 31067 ft | 409 kts | 285° |
| 2026-05-06 21:53 | -12.37722 | -75.90623 | 30583 ft | 406 kts | 286° |
| 2026-05-06 21:53 | -12.37085 | -75.93401 | 30095 ft | 403 kts | 286° |
| 2026-05-06 21:53 | -12.36441 | -75.96204 | 29591 ft | 401 kts | 287° |
| 2026-05-06 21:54 | -12.35808 | -75.98962 | 29102 ft | 399 kts | 287° |
| 2026-05-06 21:54 | -12.35177 | -76.01709 | 28645 ft | 396 kts | 287° |
| 2026-05-06 21:54 | -12.34553 | -76.04430 | 28197 ft | 394 kts | 287° |
| 2026-05-06 21:54 | -12.33960 | -76.07131 | 27726 ft | 392 kts | 285° |
| 2026-05-06 21:55 | -12.33375 | -76.09848 | 27262 ft | 390 kts | 285° |
| 2026-05-06 21:55 | -12.32795 | -76.12550 | 26790 ft | 388 kts | 285° |
| 2026-05-06 21:55 | -12.32216 | -76.15243 | 26320 ft | 387 kts | 285° |
| 2026-05-06 21:55 | -12.31640 | -76.17913 | 25838 ft | 385 kts | 285° |
| 2026-05-06 21:56 | -12.31071 | -76.20549 | 25366 ft | 384 kts | 284° |
| 2026-05-06 21:56 | -12.30497 | -76.23204 | 24881 ft | 382 kts | 284° |
| 2026-05-06 21:56 | -12.29923 | -76.25864 | 24421 ft | 380 kts | 284° |
| 2026-05-06 21:56 | -12.29360 | -76.28487 | 23953 ft | 379 kts | 284° |
| 2026-05-06 21:57 | -12.28801 | -76.31097 | 23492 ft | 377 kts | 284° |
| 2026-05-06 21:57 | -12.28242 | -76.33701 | 23035 ft | 376 kts | 283° |
| 2026-05-06 21:57 | -12.27683 | -76.36299 | 22565 ft | 374 kts | 283° |
| 2026-05-06 21:57 | -12.27130 | -76.38869 | 22108 ft | 373 kts | 283° |
| 2026-05-06 21:58 | -12.26568 | -76.41481 | 21627 ft | 373 kts | 283° |
| 2026-05-06 21:58 | -12.26019 | -76.44041 | 21167 ft | 373 kts | 283° |
| 2026-05-06 21:58 | -12.25464 | -76.46619 | 20679 ft | 374 kts | 283° |
| 2026-05-06 21:58 | -12.24897 | -76.49236 | 20195 ft | 373 kts | 283° |
| 2026-05-06 21:59 | -12.24338 | -76.51815 | 19747 ft | 373 kts | 283° |
| 2026-05-06 21:59 | -12.23779 | -76.54395 | 19266 ft | 373 kts | 283° |
| 2026-05-06 21:59 | -12.23224 | -76.56961 | 18753 ft | 374 kts | 283° |
| 2026-05-06 21:59 | -12.22663 | -76.59549 | 18258 ft | 375 kts | 283° |
| 2026-05-06 22:00 | -12.22103 | -76.62130 | 17891 ft | 363 kts | 283° |
| 2026-05-06 22:00 | -12.21570 | -76.64589 | 17662 ft | 346 kts | 283° |
| 2026-05-06 22:00 | -12.21055 | -76.66953 | 17268 ft | 344 kts | 283° |
| 2026-05-06 22:00 | -12.20529 | -76.69353 | 16820 ft | 345 kts | 283° |
| 2026-05-06 22:01 | -12.20008 | -76.71725 | 16395 ft | 344 kts | 283° |
| 2026-05-06 22:01 | -12.19490 | -76.74091 | 16071 ft | 334 kts | 283° |
| 2026-05-06 22:01 | -12.18992 | -76.76366 | 15697 ft | 328 kts | 283° |
| 2026-05-06 22:01 | -12.18494 | -76.78634 | 15165 ft | 327 kts | 282° |
| 2026-05-06 22:02 | -12.17997 | -76.80896 | 14667 ft | 325 kts | 282° |
| 2026-05-06 22:02 | -12.17510 | -76.83118 | 14165 ft | 325 kts | 282° |
| 2026-05-06 22:02 | -12.17013 | -76.85381 | 13805 ft | 322 kts | 282° |
| 2026-05-06 22:02 | -12.16525 | -76.87600 | 13516 ft | 319 kts | 282° |
| 2026-05-06 22:03 | -12.16038 | -76.89813 | 13205 ft | 315 kts | 282° |
| 2026-05-06 22:03 | -12.15565 | -76.91964 | 12700 ft | 314 kts | 282° |
| 2026-05-06 22:03 | -12.15087 | -76.94141 | 12156 ft | 313 kts | 282° |
| 2026-05-06 22:03 | -12.14612 | -76.96314 | 11644 ft | 313 kts | 282° |
| 2026-05-06 22:04 | -12.14143 | -76.98463 | 11284 ft | 311 kts | 282° |
| 2026-05-06 22:04 | -12.13673 | -77.00619 | 10944 ft | 307 kts | 282° |
| 2026-05-06 22:04 | -12.13217 | -77.02702 | 10765 ft | 301 kts | 282° |
| 2026-05-06 22:04 | -12.12755 | -77.04810 | 10366 ft | 304 kts | 282° |
| 2026-05-06 22:05 | -12.12293 | -77.06916 | 10090 ft | 300 kts | 282° |
| 2026-05-06 22:05 | -12.11842 | -77.08972 | 9935 ft | 292 kts | 282° |
| 2026-05-06 22:05 | -12.11404 | -77.10968 | 9508 ft | 296 kts | 282° |
| 2026-05-06 22:05 | -12.10946 | -77.13056 | 9045 ft | 300 kts | 282° |
| 2026-05-06 22:06 | -12.10495 | -77.15114 | 8811 ft | 291 kts | 282° |
| 2026-05-06 22:06 | -12.10061 | -77.17085 | 8598 ft | 279 kts | 282° |
| 2026-05-06 22:06 | -12.09395 | -77.18893 | 8255 ft | 273 kts | 306° |
| 2026-05-06 22:06 | -12.07937 | -77.20091 | 7827 ft | 269 kts | 335° |
| 2026-05-06 22:07 | -12.06245 | -77.20843 | 7407 ft | 267 kts | 336° |
| 2026-05-06 22:07 | -12.04546 | -77.21629 | 6970 ft | 266 kts | 335° |
| 2026-05-06 22:07 | -12.02876 | -77.22430 | 6543 ft | 265 kts | 335° |
| 2026-05-06 22:07 | -12.01233 | -77.23238 | 6141 ft | 262 kts | 334° |
| 2026-05-06 22:08 | -11.99592 | -77.24084 | 5697 ft | 261 kts | 333° |
| 2026-05-06 22:08 | -11.97993 | -77.24924 | 5291 ft | 260 kts | 333° |
| 2026-05-06 22:08 | -11.96370 | -77.25775 | 4979 ft | 259 kts | 333° |
| 2026-05-06 22:08 | -11.94791 | -77.26599 | 4727 ft | 256 kts | 333° |
| 2026-05-06 22:09 | -11.93183 | -77.27434 | 4456 ft | 255 kts | 335° |
| 2026-05-06 22:09 | -11.91501 | -77.27865 | 4238 ft | 248 kts | 3° |
| 2026-05-06 22:09 | -11.89897 | -77.27408 | 4049 ft | 237 kts | 34° |
| 2026-05-06 22:09 | -11.88629 | -77.26356 | 3911 ft | 229 kts | 47° |
| 2026-05-06 22:10 | -11.87645 | -77.25127 | 3787 ft | 221 kts | 54° |
| 2026-05-06 22:10 | -11.86776 | -77.23862 | 3625 ft | 212 kts | 61° |
| 2026-05-06 22:10 | -11.86397 | -77.22459 | 3457 ft | 202 kts | 96° |
| 2026-05-06 22:10 | -11.86769 | -77.21115 | 3250 ft | 192 kts | 113° |
| 2026-05-06 22:11 | -11.87510 | -77.20044 | 2990 ft | 187 kts | 140° |
| 2026-05-06 22:11 | -11.88590 | -77.19325 | 2813 ft | 181 kts | 150° |
| 2026-05-06 22:11 | -11.89716 | -77.18758 | 2559 ft | 180 kts | 154° |
| 2026-05-06 22:11 | -11.90816 | -77.18237 | 2304 ft | 170 kts | 154° |
| 2026-05-06 22:12 | -11.91527 | -77.17896 | 2142 ft | 164 kts | 154° |
| 2026-05-06 22:12 | -11.93742 | -77.16804 | 1670 ft | 140 kts | 154° |
| 2026-05-06 22:12 | -11.94595 | -77.16379 | 1487 ft | 132 kts | 154° |
| 2026-05-06 22:13 | -11.95425 | -77.15968 | 1333 ft | 131 kts | 155° |
| 2026-05-06 22:13 | -11.96244 | -77.15562 | 1173 ft | 131 kts | 155° |
| 2026-05-06 22:13 | -11.97062 | -77.15157 | 1011 ft | 130 kts | 155° |
| 2026-05-06 22:13 | -11.97877 | -77.14749 | 835 ft | 129 kts | 155° |
| 2026-05-06 22:14 | -11.98680 | -77.14354 | 647 ft | 128 kts | 155° |
| 2026-05-06 22:14 | -11.99486 | -77.13953 | 490 ft | 128 kts | 155° |
| 2026-05-06 22:14 | -12.00290 | -77.13563 | 332 ft | 127 kts | 155° |
| 2026-05-06 22:14 | -12.01092 | -77.13167 | 172 ft | 126 kts | 155° |
| 2026-05-06 22:15 | -12.01838 | -77.12803 | 126 ft | 100 kts | 153° |
| 2026-05-06 22:15 | -12.02315 | -77.12566 | 126 ft | 51 kts | 154° |
| 2026-05-06 22:15 | -12.02512 | -77.12468 | 126 ft | 23 kts | 153° |
| 2026-05-06 22:15 | -12.02649 | -77.12386 | 126 ft | 22 kts | 139° |
| 2026-05-06 22:16 | -12.02733 | -77.12283 | 126 ft | 11 kts | 122° |
| 2026-05-06 22:16 | -12.02786 | -77.12212 | 126 ft | 9 kts | 127° |
| 2026-05-06 22:16 | -12.02819 | -77.12166 | 126 ft | 8 kts | 127° |
| 2026-05-06 22:16 | -12.02862 | -77.12124 | 126 ft | 8 kts | 143° |
| 2026-05-06 22:17 | -12.02914 | -77.12090 | 126 ft | 8 kts | 153° |
| 2026-05-06 22:17 | -12.02949 | -77.12048 | 126 ft | 7 kts | 82° |
| 2026-05-06 22:17 | -12.02908 | -77.12014 | 126 ft | 8 kts | 29° |
| 2026-05-06 22:17 | -12.02878 | -77.11969 | 126 ft | 7 kts | 66° |
| 2026-05-06 22:18 | -12.02856 | -77.11919 | 126 ft | 7 kts | 65° |
| 2026-05-06 22:18 | -12.02836 | -77.11880 | 126 ft | 5 kts | 36° |
| 2026-05-06 22:18 | -12.02801 | -77.11889 | 126 ft | 5 kts | 339° |
| 2026-05-06 22:18 | -12.02776 | -77.11864 | 126 ft | 5 kts | 67° |
| 2026-05-06 22:19 | -12.02769 | -77.11848 | 126 ft | 1 kts | 65° |
| 2026-05-06 22:19 | -12.02766 | -77.11842 | 126 ft | 0 kts | 65° |
| 2026-05-06 22:19 | -12.02766 | -77.11841 | 126 ft | 0 kts | 66° |